LEMG/AGP METAR and TAF weather

Enter ICAO airport designator
Station Type Date Time Source
LEMG METAR 2018/12/13 06:30 UTC NOAA

LEMG 130630Z 00000KT 9999 -RA FEW040 SCT050 12/10 Q1016 RERA NOSIG


Station Type Date Time Source
LEMG Decoded METAR 2018/12/13 06:30 UTC NOAA

Malaga / Aeropuerto, Spain (LEMG) 36-40N 004-29W 7M
Dec 13, 2018 - 01:30 AM EST / 2018.12.13 0630 UTC
Wind: Calm:0
Visibility: greater than 7 mile(s):0
Sky conditions: partly cloudy
Weather: light rain
Temperature: 53 F (12 C)
Dew Point: 50 F (10 C)
Relative Humidity: 87%
Pressure (altimeter): 30.00 in. Hg (1016 hPa)
ob: LEMG 130630Z 00000KT 9999 -RA FEW040 SCT050 12/10 Q1016 RERA NOSIG
cycle: 6

Station Type Date Time Source
LEMG TAF 2018/12/13 06:59 UTC NOAA

TAF
AMD LEMG 130556Z 1306/1406 29012KT 9999 SCT050 TX17/1311Z TN11/1318Z
TEMPO 1306/1312 4000 RA BKN014
BECMG 1310/1312 32015G25KT PROB40
TEMPO 1310/1316 32020G35KT


Example: see airport list